Gene Huffty — WDD9076 — position and weather

sailwx.info

Track history (hours):
 
Tides and Currents Weather Stations Pressure Air Temp Water Temp Dewpoint Dewpoint Depression Visibility Wind Speed Wind Dir Waves Ship Positions

Gene Huffty

Owner: Ingram Barge Company LLC, Nashville, TN. More information available from US FCC via Universal Licensing System and Coast Guard Vessel Documentation Center.

Last reported at 2017-Dec-04 10:30 UTC. Time now 2017-Dec-12 21:54 UTC.
Position N 29°56' W 093°10'.
Warning: this ship's position is 8 days out of date.

Length 19 m; draft 3 m.

Type: Towing. MMSI: 367306470.

Date/timePositionNaut miles runAvg speedWind from/ knotsBaromVisibWave heightAir tempDewpointWater temp
2017-Dec-04 10:30N 29°56' W 093°10'2 3.3
2017-Dec-04 10:00N 29°56' W 093°08'2 3.5
2017-Dec-04 09:30N 29°56' W 093°06'16 3.3
2017-Dec-04 04:34N 29°58' W 092°47'6 3.5
2017-Dec-04 02:51N 29°56' W 092°41'10 2.8
2017-Dec-03 23:15N 29°54' W 092°29'1 3.6
2017-Dec-03 22:51N 29°54' W 092°28'1 3.3
2017-Dec-03 22:29N 29°53' W 092°26'2 3.5
2017-Dec-03 21:55N 29°53' W 092°24'3 3.2
2017-Dec-03 20:58N 29°51' W 092°22'2 3.4
2017-Dec-03 20:30N 29°51' W 092°20'2 3.4
2017-Dec-03 20:00N 29°50' W 092°18'2 3.4
2017-Dec-03 19:30N 29°49' W 092°17'2 3.7
2017-Dec-03 19:00N 29°48' W 092°15'2 4.2
2017-Dec-03 18:30N 29°47' W 092°12'2 3.7
2017-Dec-03 18:00N 29°47' W 092°10'2 3.7
2017-Dec-03 17:30N 29°47' W 092°08'2 4.2
2017-Dec-03 17:00N 29°48' W 092°06'2 3.7
2017-Dec-03 16:30N 29°48' W 092°04'0 0.2
2017-Dec-03 16:00N 29°48' W 092°04'0 0.0
2017-Dec-03 15:30N 29°48' W 092°04'0 0.0
2017-Dec-03 15:00N 29°48' W 092°04'0 0.0
2017-Dec-03 14:30N 29°48' W 092°04'0 0.0
2017-Dec-03 14:00N 29°48' W 092°04'0 0.0
2017-Dec-03 13:30N 29°48' W 092°04'0 0.0
2017-Dec-03 13:00N 29°48' W 092°04'0 0.0
2017-Dec-03 12:30N 29°48' W 092°04'0 0.1
2017-Dec-03 12:00N 29°48' W 092°04'0 0.0
2017-Dec-03 11:30N 29°48' W 092°04'0 0.0
2017-Dec-03 11:00N 29°48' W 092°04'0 0.0
2017-Dec-03 10:30N 29°48' W 092°04'0 0.0
2017-Dec-03 10:00N 29°48' W 092°04'0 0.0
2017-Dec-03 09:30N 29°48' W 092°04'0 0.0
2017-Dec-03 09:00N 29°48' W 092°04'0 0.0
2017-Dec-03 08:30N 29°48' W 092°04'0 0.0
2017-Dec-03 08:00N 29°48' W 092°04'0 0.0
2017-Dec-03 07:30N 29°48' W 092°04'0 0.0
2017-Dec-03 07:00N 29°48' W 092°04'0 0.0
2017-Dec-03 06:30N 29°48' W 092°04'0 0.0
2017-Dec-03 06:00N 29°48' W 092°04'0 0.0
2017-Dec-03 05:30N 29°48' W 092°04'0 0.0
2017-Dec-03 05:00N 29°48' W 092°04'0 0.0
2017-Dec-03 04:30N 29°48' W 092°04'0 0.0
2017-Dec-03 04:00N 29°48' W 092°04'0 0.0
2017-Dec-03 03:30N 29°48' W 092°04'0 0.0
2017-Dec-03 03:00N 29°48' W 092°04'0 0.1
2017-Dec-03 02:30N 29°48' W 092°04'1 1.8
2017-Dec-03 02:00N 29°49' W 092°03'2 3.7
2017-Dec-03 01:30N 29°49' W 092°01'2 3.9
2017-Dec-03 01:00N 29°50' W 091°59'2 3.6
2017-Dec-03 00:30N 29°51' W 091°57'2 3.8
2017-Dec-03 00:00N 29°51' W 091°55'  
2017-Nov-26 00:07N 29°50' W 091°58'1 5.2
2017-Nov-25 23:58N 29°50' W 091°58'2 5.1
2017-Nov-25 23:30N 29°49' W 092°01'2 4.9
2017-Nov-25 23:00N 29°49' W 092°04'2 4.8
2017-Nov-25 22:30N 29°48' W 092°06'1 2.0
2017-Nov-25 22:00N 29°47' W 092°07'1 1.8
2017-Nov-25 21:30N 29°47' W 092°08'2 4.2
2017-Nov-25 21:00N 29°47' W 092°11'2 3.5
2017-Nov-25 20:30N 29°47' W 092°12'1 2.6
2017-Nov-25 20:00N 29°48' W 092°14'2 3.3
2017-Nov-25 19:30N 29°48' W 092°16'2 4.1
2017-Nov-25 19:00N 29°49' W 092°18'2 3.8
2017-Nov-25 18:30N 29°50' W 092°19'7 1.3
2017-Nov-25 13:22N 29°53' W 092°26'0 0.0
2017-Nov-25 13:00N 29°53' W 092°26'0 0.0
2017-Nov-25 12:30N 29°53' W 092°26'25 3.6
2017-Nov-25 05:33N 29°56' W 092°55'5 3.7
2017-Nov-25 04:20N 29°56' W 093°01'1 3.9
2017-Nov-25 03:59N 29°56' W 093°02'2 3.5
2017-Nov-25 03:29N 29°56' W 093°04'2 3.6
2017-Nov-25 03:00N 29°56' W 093°06'1 2.1
2017-Nov-25 02:30N 29°56' W 093°07'2 4.0
2017-Nov-25 02:00N 29°56' W 093°10'2 3.2
2017-Nov-25 01:30N 29°57' W 093°11'2 3.6
2017-Nov-25 01:00N 29°59' W 093°12'2 3.9
2017-Nov-25 00:30N 30°00' W 093°14'2 4.0
2017-Nov-25 00:00N 30°02' W 093°15'2 3.8
2017-Nov-24 23:30N 30°04' W 093°16'2 4.3
2017-Nov-24 23:00N 30°05' W 093°18'1 1.6
2017-Nov-24 22:30N 30°06' W 093°18'0 0.0
2017-Nov-24 22:00N 30°06' W 093°18'0 0.0
2017-Nov-24 21:30N 30°06' W 093°18'0 0.0
2017-Nov-24 21:00N 30°06' W 093°18'0 0.0
2017-Nov-24 20:30N 30°06' W 093°18'0 0.0
2017-Nov-24 20:00N 30°06' W 093°18'0 0.0
2017-Nov-24 19:30N 30°06' W 093°18'0 0.0
2017-Nov-24 19:00N 30°06' W 093°18'0 0.0
2017-Nov-24 18:30N 30°06' W 093°18'0 0.0
2017-Nov-24 18:00N 30°06' W 093°18'0 0.0
2017-Nov-24 17:30N 30°06' W 093°18'0 0.0
2017-Nov-24 17:00N 30°06' W 093°18'0 0.0
2017-Nov-24 16:30N 30°06' W 093°18'0 0.0
2017-Nov-24 16:00N 30°06' W 093°18'0 0.0
2017-Nov-24 15:30N 30°06' W 093°18'0 0.0
2017-Nov-24 15:00N 30°06' W 093°18'0 0.0
2017-Nov-24 14:30N 30°06' W 093°18'1 2.1
2017-Nov-24 14:00N 30°06' W 093°19'2 4.7
2017-Nov-24 13:30N 30°04' W 093°21'2 3.1
2017-Nov-24 13:00N 30°04' W 093°23'0 0.1
2017-Nov-24 12:30N 30°04' W 093°23'0 0.0
2017-Nov-24 12:00N 30°04' W 093°23'0 0.0
2017-Nov-24 11:30N 30°04' W 093°23'0 0.0
2017-Nov-24 11:00N 30°04' W 093°23'0 0.0
2017-Nov-24 10:30N 30°04' W 093°23'  
Track history (hours):
 
Tides and Currents Weather Stations Pressure Air Temp Water Temp Dewpoint Dewpoint Depression Visibility Wind Speed Wind Dir Waves Ship Positions

Gene Huffty

Owner: Ingram Barge Company LLC, Nashville, TN. More information available from US FCC via Universal Licensing System and Coast Guard Vessel Documentation Center.

Last reported at 2017-Dec-04 10:30 UTC. Time now 2017-Dec-12 21:54 UTC.
Position N 29°56' W 093°10'.
Warning: this ship's position is 8 days out of date.

Length 19 m; draft 3 m.

Type: Towing. MMSI: 367306470.

Date/timePositionNaut miles runAvg speedWind from/ knotsBaromVisibWave heightAir tempDewpointWater temp
2017-Dec-04 10:30N 29°56' W 093°10'2 3.3
2017-Dec-04 10:00N 29°56' W 093°08'2 3.5
2017-Dec-04 09:30N 29°56' W 093°06'16 3.3
2017-Dec-04 04:34N 29°58' W 092°47'6 3.5
2017-Dec-04 02:51N 29°56' W 092°41'10 2.8
2017-Dec-03 23:15N 29°54' W 092°29'1 3.6
2017-Dec-03 22:51N 29°54' W 092°28'1 3.3
2017-Dec-03 22:29N 29°53' W 092°26'2 3.5
2017-Dec-03 21:55N 29°53' W 092°24'3 3.2
2017-Dec-03 20:58N 29°51' W 092°22'2 3.4
2017-Dec-03 20:30N 29°51' W 092°20'2 3.4
2017-Dec-03 20:00N 29°50' W 092°18'2 3.4
2017-Dec-03 19:30N 29°49' W 092°17'2 3.7
2017-Dec-03 19:00N 29°48' W 092°15'2 4.2
2017-Dec-03 18:30N 29°47' W 092°12'2 3.7
2017-Dec-03 18:00N 29°47' W 092°10'2 3.7
2017-Dec-03 17:30N 29°47' W 092°08'2 4.2
2017-Dec-03 17:00N 29°48' W 092°06'2 3.7
2017-Dec-03 16:30N 29°48' W 092°04'0 0.2
2017-Dec-03 16:00N 29°48' W 092°04'0 0.0
2017-Dec-03 15:30N 29°48' W 092°04'0 0.0
2017-Dec-03 15:00N 29°48' W 092°04'0 0.0
2017-Dec-03 14:30N 29°48' W 092°04'0 0.0
2017-Dec-03 14:00N 29°48' W 092°04'0 0.0
2017-Dec-03 13:30N 29°48' W 092°04'0 0.0
2017-Dec-03 13:00N 29°48' W 092°04'0 0.0
2017-Dec-03 12:30N 29°48' W 092°04'0 0.1
2017-Dec-03 12:00N 29°48' W 092°04'0 0.0
2017-Dec-03 11:30N 29°48' W 092°04'0 0.0
2017-Dec-03 11:00N 29°48' W 092°04'0 0.0
2017-Dec-03 10:30N 29°48' W 092°04'0 0.0
2017-Dec-03 10:00N 29°48' W 092°04'0 0.0
2017-Dec-03 09:30N 29°48' W 092°04'0 0.0
2017-Dec-03 09:00N 29°48' W 092°04'0 0.0
2017-Dec-03 08:30N 29°48' W 092°04'0 0.0
2017-Dec-03 08:00N 29°48' W 092°04'0 0.0
2017-Dec-03 07:30N 29°48' W 092°04'0 0.0
2017-Dec-03 07:00N 29°48' W 092°04'0 0.0
2017-Dec-03 06:30N 29°48' W 092°04'0 0.0
2017-Dec-03 06:00N 29°48' W 092°04'0 0.0
2017-Dec-03 05:30N 29°48' W 092°04'0 0.0
2017-Dec-03 05:00N 29°48' W 092°04'0 0.0
2017-Dec-03 04:30N 29°48' W 092°04'0 0.0
2017-Dec-03 04:00N 29°48' W 092°04'0 0.0
2017-Dec-03 03:30N 29°48' W 092°04'0 0.0
2017-Dec-03 03:00N 29°48' W 092°04'0 0.1
2017-Dec-03 02:30N 29°48' W 092°04'1 1.8
2017-Dec-03 02:00N 29°49' W 092°03'2 3.7
2017-Dec-03 01:30N 29°49' W 092°01'2 3.9
2017-Dec-03 01:00N 29°50' W 091°59'2 3.6
2017-Dec-03 00:30N 29°51' W 091°57'2 3.8
2017-Dec-03 00:00N 29°51' W 091°55'  
2017-Nov-26 00:07N 29°50' W 091°58'1 5.2
2017-Nov-25 23:58N 29°50' W 091°58'2 5.1
2017-Nov-25 23:30N 29°49' W 092°01'2 4.9
2017-Nov-25 23:00N 29°49' W 092°04'2 4.8
2017-Nov-25 22:30N 29°48' W 092°06'1 2.0
2017-Nov-25 22:00N 29°47' W 092°07'1 1.8
2017-Nov-25 21:30N 29°47' W 092°08'2 4.2
2017-Nov-25 21:00N 29°47' W 092°11'2 3.5
2017-Nov-25 20:30N 29°47' W 092°12'1 2.6
2017-Nov-25 20:00N 29°48' W 092°14'2 3.3
2017-Nov-25 19:30N 29°48' W 092°16'2 4.1
2017-Nov-25 19:00N 29°49' W 092°18'2 3.8
2017-Nov-25 18:30N 29°50' W 092°19'7 1.3
2017-Nov-25 13:22N 29°53' W 092°26'0 0.0
2017-Nov-25 13:00N 29°53' W 092°26'0 0.0
2017-Nov-25 12:30N 29°53' W 092°26'25 3.6
2017-Nov-25 05:33N 29°56' W 092°55'5 3.7
2017-Nov-25 04:20N 29°56' W 093°01'1 3.9
2017-Nov-25 03:59N 29°56' W 093°02'2 3.5
2017-Nov-25 03:29N 29°56' W 093°04'2 3.6
2017-Nov-25 03:00N 29°56' W 093°06'1 2.1
2017-Nov-25 02:30N 29°56' W 093°07'2 4.0
2017-Nov-25 02:00N 29°56' W 093°10'2 3.2
2017-Nov-25 01:30N 29°57' W 093°11'2 3.6
2017-Nov-25 01:00N 29°59' W 093°12'2 3.9
2017-Nov-25 00:30N 30°00' W 093°14'2 4.0
2017-Nov-25 00:00N 30°02' W 093°15'2 3.8
2017-Nov-24 23:30N 30°04' W 093°16'2 4.3
2017-Nov-24 23:00N 30°05' W 093°18'1 1.6
2017-Nov-24 22:30N 30°06' W 093°18'0 0.0
2017-Nov-24 22:00N 30°06' W 093°18'0 0.0
2017-Nov-24 21:30N 30°06' W 093°18'0 0.0
2017-Nov-24 21:00N 30°06' W 093°18'0 0.0
2017-Nov-24 20:30N 30°06' W 093°18'0 0.0
2017-Nov-24 20:00N 30°06' W 093°18'0 0.0
2017-Nov-24 19:30N 30°06' W 093°18'0 0.0
2017-Nov-24 19:00N 30°06' W 093°18'0 0.0
2017-Nov-24 18:30N 30°06' W 093°18'0 0.0
2017-Nov-24 18:00N 30°06' W 093°18'0 0.0
2017-Nov-24 17:30N 30°06' W 093°18'0 0.0
2017-Nov-24 17:00N 30°06' W 093°18'0 0.0
2017-Nov-24 16:30N 30°06' W 093°18'0 0.0
2017-Nov-24 16:00N 30°06' W 093°18'0 0.0
2017-Nov-24 15:30N 30°06' W 093°18'0 0.0
2017-Nov-24 15:00N 30°06' W 093°18'0 0.0
2017-Nov-24 14:30N 30°06' W 093°18'1 2.1
2017-Nov-24 14:00N 30°06' W 093°19'2 4.7
2017-Nov-24 13:30N 30°04' W 093°21'2 3.1
2017-Nov-24 13:00N 30°04' W 093°23'0 0.1
2017-Nov-24 12:30N 30°04' W 093°23'0 0.0
2017-Nov-24 12:00N 30°04' W 093°23'0 0.0
2017-Nov-24 11:30N 30°04' W 093°23'0 0.0
2017-Nov-24 11:00N 30°04' W 093°23'0 0.0
2017-Nov-24 10:30N 30°04' W 093°23'  

Dump ship's entire track history